Conklingville, New York
Current Conditions -  °F | °C
As of 5:53 PM on Thursday 18 Dec 2014 (Local Time) from KGFL Reporting Station
Overcast Overcast  
Wind Chill: 36°   Ceiling: 3000
Heat Index: 36°   Visibility: 10mi
Dew Point: 25°   Wind: 3mph
Humidity: 64%   Direction: 350°N
Pressure: 29.92"   Gusts: NA
Location:  43.3006°N, 74.0106°W
Report Text: KGFL 182253Z AUTO 35003KT 10SM OVC030 02/M04 A2992 RMK AO2 SLP138 T00221039
Loading
Personal Weather Stations






























Interactive Weather Map New forecast layout! Learn more

10-Day Weather Forecast

Advertisements
Track Severe Weather on mobile